Time;durP1;ratioP1;P1;durP2;ratioP2;P2;SDS_P1;SDS_P2;PMS_P1;PMS_P2;Temp;Humidity;BMP_temperature;BMP_pressure;BME280_temperature;BME280_humidity;BME280_pressure;Samples;Min_cycle;Max_cycle;Signal;HPM_P1;HPM_P2
2022/06/02 00:00:15;;;;;;;13.20;5.80;;;;;;;38.48;41.17;100892.38;5070449;28;20920;-72
2022/06/02 00:03:05;;;;;;;16.77;6.30;;;;;;;38.54;40.87;100897.38;5070471;28;20428;-71
2022/06/02 00:05:51;;;;;;;14.63;6.17;;;;;;;38.60;40.68;100882.56;5053708;28;20414;-72
2022/06/02 00:08:44;;;;;;;10.50;6.63;;;;;;;38.60;40.59;100879.06;5071552;28;20506;-73
2022/06/02 00:11:29;;;;;;;21.87;7.20;;;;;;;38.51;41.01;100873.59;5053563;28;20413;-73
2022/06/02 00:14:18;;;;;;;20.50;7.20;;;;;;;38.54;40.45;100862.13;5053440;28;20445;-73
2022/06/02 00:17:02;;;;;;;12.33;6.37;;;;;;;38.54;40.58;100862.13;5053500;28;20453;-72
2022/06/02 00:19:43;;;;;;;14.10;6.83;;;;;;;38.39;41.30;100863.31;5053433;28;20491;-72
2022/06/02 00:22:22;;;;;;;13.57;5.90;;;;;;;38.53;41.52;100846.97;5053430;28;20417;-73
2022/06/02 00:25:14;;;;;;;16.63;7.40;;;;;;;38.58;40.95;100848.78;5053466;28;20451;-71
2022/06/02 00:27:51;;;;;;;15.87;8.40;;;;;;;38.58;41.09;100838.72;5040367;28;20414;-71
2022/06/02 00:30:17;;;;;;;23.43;7.03;;;;;;;38.57;40.86;100837.13;5053271;28;20409;-71
2022/06/02 00:32:51;;;;;;;17.70;8.80;;;;;;;38.69;40.71;100833.84;5069926;28;20435;-71
2022/06/02 00:35:28;;;;;;;8.27;6.07;;;;;;;38.64;40.65;100833.97;5066575;28;20466;-72
2022/06/02 00:38:18;;;;;;;15.93;7.90;;;;;;;38.63;40.76;100832.38;5049921;28;20457;-71
2022/06/02 00:40:44;;;;;;;20.60;7.30;;;;;;;38.63;41.05;100832.38;5051758;28;20422;-73
2022/06/02 00:43:47;;;;;;;16.27;6.20;;;;;;;38.48;41.31;100838.19;5053705;28;20445;-73
2022/06/02 00:46:48;;;;;;;14.23;6.80;;;;;;;38.56;41.09;100829.31;5053752;28;20410;-73
2022/06/02 00:49:34;;;;;;;17.93;7.30;;;;;;;38.59;41.12;100829.47;5053632;28;20420;-71
2022/06/02 00:52:13;;;;;;;21.53;8.30;;;;;;;38.64;40.96;100825.84;5053567;28;20448;-71
2022/06/02 00:58:48;;;;;;;25.03;8.67;;;;;;;38.64;41.17;100829.34;5054685;28;20492;-73
2022/06/02 01:01:32;;;;;;;13.47;7.83;;;;;;;38.49;41.12;100827.06;4976824;28;20451;-72
2022/06/02 01:04:01;;;;;;;14.93;6.03;;;;;;;38.57;40.81;100826.28;5070033;28;20418;-72
2022/06/02 01:06:33;;;;;;;11.17;5.73;;;;;;;38.58;40.80;100819.75;5054590;28;20437;-71
2022/06/02 01:09:08;;;;;;;18.10;8.87;;;;;;;38.56;40.80;100818.47;5053222;28;20536;-73
2022/06/02 01:12:04;;;;;;;15.97;6.80;;;;;;;38.49;41.07;100813.50;5053223;28;20414;-72
2022/06/02 01:14:59;;;;;;;15.37;8.30;;;;;;;38.51;41.04;100822.09;5053245;28;20423;-72
2022/06/02 01:17:40;;;;;;;14.03;5.47;;;;;;;38.58;40.78;100817.03;5053022;28;20524;-73
2022/06/02 01:20:24;;;;;;;13.47;6.90;;;;;;;38.54;40.81;100813.34;5054437;28;20490;-72
2022/06/02 01:23:14;;;;;;;17.10;6.30;;;;;;;38.40;41.02;100818.84;5049484;28;20482;-73
2022/06/02 01:26:17;;;;;;;8.73;4.60;;;;;;;38.55;40.75;100797.88;5038031;28;20466;-72
2022/06/02 01:29:14;;;;;;;13.57;5.77;;;;;;;38.50;41.04;100798.84;5033021;28;20416;-72
2022/06/02 01:31:39;;;;;;;13.73;6.83;;;;;;;38.57;40.81;100791.06;5053120;28;20422;-73
2022/06/02 01:34:26;;;;;;;15.37;6.90;;;;;;;38.57;40.76;100792.97;5055444;28;20477;-71
2022/06/02 01:37:37;;;;;;;13.00;5.90;;;;;;;38.59;40.96;100788.03;5056084;28;21050;-71
2022/06/02 01:40:40;;;;;;;14.27;5.90;;;;;;;38.64;40.96;100787.88;5006478;28;20424;-72
2022/06/02 01:43:13;;;;;;;18.70;7.33;;;;;;;38.36;41.49;100787.25;5054015;28;20949;-72
2022/06/02 01:45:59;;;;;;;8.10;5.43;;;;;;;38.37;41.76;100783.47;5052394;28;20898;-73
2022/06/02 01:49:21;;;;;;;14.20;6.50;;;;;;;38.43;41.40;100784.94;5035910;28;20410;-73
2022/06/02 01:52:05;;;;;;;15.00;8.70;;;;;;;38.48;41.31;100783.97;4975621;28;20448;-71
2022/06/02 01:54:55;;;;;;;13.40;6.57;;;;;;;38.51;41.40;100773.31;5047275;28;20437;-71
2022/06/02 01:57:56;;;;;;;12.43;6.93;;;;;;;38.49;41.51;100774.72;5035646;28;20530;-73
2022/06/02 02:00:26;;;;;;;10.43;5.17;;;;;;;38.45;41.62;100782.69;5035749;28;20442;-73
2022/06/02 02:03:04;;;;;;;12.87;5.67;;;;;;;38.46;41.46;100780.78;5035599;28;20780;-73
2022/06/02 02:05:48;;;;;;;11.73;7.37;;;;;;;38.26;41.96;100772.09;5035846;28;20446;-72
2022/06/02 02:08:14;;;;;;;20.40;8.30;;;;;;;38.43;41.52;100765.97;5035547;28;20434;-73
2022/06/02 02:10:51;;;;;;;13.63;6.00;;;;;;;38.39;41.73;100754.94;5035820;28;20465;-72
2022/06/02 02:13:32;;;;;;;13.43;6.43;;;;;;;38.49;41.60;100761.19;5035386;28;20792;-71
2022/06/02 02:15:58;;;;;;;26.47;7.80;;;;;;;38.45;41.55;100758.31;5035232;28;20438;-71
2022/06/02 02:18:46;;;;;;;13.63;5.30;;;;;;;38.43;41.62;100757.84;5053186;28;20945;-72
2022/06/02 02:21:27;;;;;;;11.63;6.40;;;;;;;38.08;42.57;100748.69;5035253;28;20418;-72
2022/06/02 02:24:27;;;;;;;8.03;6.00;;;;;;;38.04;42.72;100748.50;5035245;28;20426;-72
2022/06/02 02:27:19;;;;;;;17.00;7.53;;;;;;;38.22;42.35;100751.31;5035180;28;20929;-73
2022/06/02 02:30:10;;;;;;;13.67;7.33;;;;;;;38.09;42.52;100750.28;5036798;28;20831;-72
2022/06/02 02:32:56;;;;;;;14.87;6.57;;;;;;;38.18;42.24;100743.81;5033503;28;20476;-73
2022/06/02 02:35:33;;;;;;;11.30;5.57;;;;;;;38.00;42.79;100741.28;5072811;28;20468;-73
2022/06/02 02:38:24;;;;;;;13.63;7.27;;;;;;;37.80;43.67;100754.22;5072795;28;21016;-72
2022/06/02 02:41:00;;;;;;;15.07;7.07;;;;;;;37.68;43.61;100758.56;5054778;28;20852;-71
2022/06/02 02:43:39;;;;;;;18.30;8.93;;;;;;;37.76;44.06;100755.94;5054688;28;20814;-71
2022/06/02 02:46:08;;;;;;;15.70;9.17;;;;;;;37.86;43.53;100760.31;5054824;28;20857;-72
2022/06/02 02:48:53;;;;;;;13.60;9.27;;;;;;;37.75;44.02;100761.63;5054752;28;20413;-73
2022/06/02 02:51:23;;;;;;;18.73;11.03;;;;;;;37.51;44.61;100751.94;5054541;28;20800;-73
2022/06/02 02:54:04;;;;;;;20.57;14.60;;;;;;;37.38;44.44;100756.28;5072611;28;20390;-72
2022/06/02 02:56:41;;;;;;;23.37;14.80;;;;;;;37.49;44.90;100750.63;5054578;28;20456;-73
2022/06/02 02:59:55;;;;;;;22.87;15.03;;;;;;;37.52;44.85;100752.72;5070032;22;20923;-72
2022/06/02 03:02:32;;;;;;;24.17;17.07;;;;;;;37.38;44.58;100750.03;5092628;28;20507;-71
2022/06/02 03:05:27;;;;;;;31.53;16.00;;;;;;;37.45;44.76;100757.75;5073489;28;20562;-71
2022/06/02 03:08:03;;;;;;;26.17;15.93;;;;;;;37.73;44.38;100763.88;5092623;28;20472;-71
2022/06/02 03:10:39;;;;;;;18.93;13.80;;;;;;;37.90;43.63;100764.81;5074448;28;20463;-72
2022/06/02 03:13:26;;;;;;;32.63;15.73;;;;;;;37.71;44.25;100766.09;5074266;28;20424;-73
2022/06/02 03:16:23;;;;;;;23.23;13.60;;;;;;;37.66;44.08;100761.59;5074025;28;20472;-71
2022/06/02 03:19:02;;;;;;;23.43;13.13;;;;;;;37.58;44.32;100765.03;5053970;28;20853;-71
2022/06/02 03:21:35;;;;;;;19.90;14.80;;;;;;;37.68;44.49;100770.19;5073931;28;20505;-71
2022/06/02 03:24:15;;;;;;;21.47;16.00;;;;;;;37.69;44.42;100769.09;5074187;28;20425;-71
2022/06/02 03:26:51;;;;;;;26.93;20.10;;;;;;;37.62;44.63;100772.22;5074198;28;20472;-72
2022/06/02 03:29:43;;;;;;;30.70;16.63;;;;;;;37.47;45.28;100763.66;5074178;28;20930;-72
2022/06/02 03:32:27;;;;;;;28.23;18.30;;;;;;;37.28;45.20;100775.41;5061196;28;20430;-72
2022/06/02 03:35:26;;;;;;;30.57;18.77;;;;;;;37.20;45.71;100778.00;5053957;28;20424;-72
2022/06/02 03:38:14;;;;;;;25.97;17.00;;;;;;;37.26;45.57;100774.91;5053905;28;20456;-71
2022/06/02 03:41:04;;;;;;;30.30;15.70;;;;;;;37.26;45.50;100787.59;5053792;28;20425;-71
2022/06/02 03:43:47;;;;;;;26.73;15.10;;;;;;;37.11;45.80;100781.44;5053869;28;20422;-71
2022/06/02 03:46:24;;;;;;;28.53;18.10;;;;;;;37.14;45.60;100790.84;5076959;22;20531;-73
2022/06/02 03:49:15;;;;;;;28.70;17.53;;;;;;;37.28;45.10;100788.91;5070486;28;20512;-73
2022/06/02 03:51:53;;;;;;;24.70;16.07;;;;;;;37.27;45.13;100783.81;5070396;28;20548;-72
2022/06/02 03:54:43;;;;;;;27.70;18.87;;;;;;;37.52;44.92;100787.91;5070595;28;20440;-73
2022/06/02 03:57:46;;;;;;;23.83;15.87;;;;;;;37.57;44.80;100793.22;5070364;28;21021;-73
2022/06/02 04:00:36;;;;;;;26.73;16.53;;;;;;;37.61;44.75;100802.28;5070260;28;20426;-72
2022/06/02 04:03:07;;;;;;;22.87;16.00;;;;;;;37.57;44.58;100796.72;5070147;28;20445;-73
2022/06/02 04:05:55;;;;;;;29.40;16.53;;;;;;;37.51;44.59;100802.53;5070551;28;20517;-72
2022/06/02 04:09:08;;;;;;;23.93;16.87;;;;;;;37.48;44.58;100813.97;5070324;28;20841;-71
2022/06/02 04:15:04;;;;;;;28.30;17.77;;;;;;;37.25;45.13;100835.50;5071757;28;20393;-72
2022/06/02 04:17:51;;;;;;;26.53;17.93;;;;;;;37.40;44.48;100839.03;5074182;28;20508;-73
2022/06/02 04:20:35;;;;;;;29.27;19.43;;;;;;;37.47;44.33;100842.13;5074265;28;20425;-73
2022/06/02 04:23:34;;;;;;;26.90;19.40;;;;;;;37.58;44.35;100836.19;5075571;28;20406;-72
2022/06/02 04:26:24;;;;;;;29.07;19.73;;;;;;;37.49;44.21;100845.31;5074009;28;20500;-72
2022/06/02 04:29:00;;;;;;;23.47;17.00;;;;;;;37.19;45.17;100847.53;5074064;28;20428;-72
2022/06/02 04:31:32;;;;;;;20.10;16.00;;;;;;;37.28;44.89;100845.72;5058917;28;20940;-72
2022/06/02 04:34:33;;;;;;;23.53;18.77;;;;;;;37.29;44.42;100850.03;5054063;28;20431;-71
2022/06/02 04:37:11;;;;;;;23.60;16.33;;;;;;;37.29;44.73;100838.41;4977262;28;20474;-71
2022/06/02 04:39:51;;;;;;;26.67;15.43;;;;;;;37.35;44.47;100846.16;5043805;28;20449;-71
2022/06/02 04:42:54;;;;;;;20.47;15.70;;;;;;;37.35;44.51;100837.22;5053908;28;20418;-72
2022/06/02 04:45:40;;;;;;;20.07;15.10;;;;;;;37.29;44.68;100846.53;5053518;28;20477;-72
2022/06/02 04:48:18;;;;;;;23.87;15.90;;;;;;;37.22;44.51;100840.72;5053235;28;20470;-72
2022/06/02 04:50:56;;;;;;;25.83;14.30;;;;;;;37.03;45.12;100848.94;5053719;28;20515;-71
2022/06/02 04:53:59;;;;;;;23.77;14.77;;;;;;;36.91;45.37;100841.31;5053665;28;20442;-71
2022/06/02 04:56:33;;;;;;;34.20;14.00;;;;;;;37.20;44.86;100845.63;5053473;28;20406;-71
2022/06/02 04:59:16;;;;;;;20.50;15.30;;;;;;;37.15;45.27;100843.84;5053421;28;20422;-71
2022/06/02 05:02:22;;;;;;;25.07;13.97;;;;;;;37.21;45.16;100847.25;5053380;28;20839;-71
2022/06/02 05:05:03;;;;;;;25.77;17.93;;;;;;;37.22;44.86;100838.81;5053480;28;20982;-70
2022/06/02 05:07:44;;;;;;;18.43;14.80;;;;;;;37.25;44.79;100842.81;5053315;28;20415;-72
2022/06/02 05:10:29;;;;;;;22.20;16.43;;;;;;;37.28;44.39;100837.63;5054447;28;20399;-73
2022/06/02 05:13:22;;;;;;;24.40;16.07;;;;;;;37.30;44.73;100838.09;5053262;28;20407;-73
2022/06/02 05:16:13;;;;;;;22.13;14.37;;;;;;;37.33;44.93;100836.72;5053156;28;20426;-73
2022/06/02 05:19:01;;;;;;;21.67;13.27;;;;;;;37.44;44.46;100835.41;5053156;28;20553;-72
2022/06/02 05:22:02;;;;;;;21.90;15.17;;;;;;;37.50;44.15;100834.19;5052999;28;20919;-70
2022/06/02 05:24:49;;;;;;;28.33;16.97;;;;;;;37.44;44.62;100843.53;5054237;28;20623;-71
2022/06/02 05:27:42;;;;;;;25.20;16.20;;;;;;;37.53;44.00;100835.50;5052173;28;20442;-71
2022/06/02 05:30:18;;;;;;;22.90;16.50;;;;;;;37.55;44.40;100842.19;5052813;28;20814;-71
2022/06/02 05:33:02;;;;;;;33.03;17.60;;;;;;;37.58;43.89;100848.94;5052626;28;21023;-71
2022/06/02 05:35:52;;;;;;;37.70;20.10;;;;;;;37.48;43.96;100849.94;5054080;28;20788;-71
2022/06/02 05:38:42;;;;;;;40.97;28.30;;;;;;;37.38;44.31;100853.69;5052446;28;20470;-72
2022/06/02 05:41:40;;;;;;;48.67;29.53;;;;;;;37.21;44.87;100855.34;5052524;28;20438;-73
2022/06/02 05:44:36;;;;;;;45.60;27.73;;;;;;;37.25;44.44;100850.94;5052613;28;20430;-71
2022/06/02 05:47:14;;;;;;;29.50;21.60;;;;;;;37.10;45.00;100855.56;5052362;28;20477;-75
2022/06/02 05:50:19;;;;;;;34.10;22.00;;;;;;;37.24;45.13;100849.34;5059545;28;20423;-72
2022/06/02 05:52:53;;;;;;;26.50;19.87;;;;;;;37.12;44.73;100853.34;5038480;28;20425;-73
2022/06/02 05:55:38;;;;;;;27.10;20.07;;;;;;;37.17;44.91;100851.63;5060922;28;20804;-71
2022/06/02 05:58:34;;;;;;;31.00;21.67;;;;;;;37.18;44.75;100856.75;5052226;28;20462;-71
2022/06/02 06:01:12;;;;;;;25.30;19.67;;;;;;;37.12;45.13;100858.75;5053075;28;20450;-71
2022/06/02 06:03:41;;;;;;;28.57;20.57;;;;;;;36.95;45.37;100853.13;5055496;28;20441;-73
2022/06/02 06:06:31;;;;;;;28.00;17.70;;;;;;;36.85;45.59;100856.00;5063005;28;20433;-72
2022/06/02 06:09:19;;;;;;;25.33;19.47;;;;;;;36.97;45.76;100855.56;5057061;28;21207;-72
2022/06/02 06:11:56;;;;;;;32.00;22.30;;;;;;;36.75;46.15;100858.88;5056391;28;20419;-72
2022/06/02 06:14:44;;;;;;;28.73;20.20;;;;;;;36.53;46.68;100843.34;5057125;28;20426;-73
2022/06/02 06:17:55;;;;;;;35.00;20.40;;;;;;;36.39;47.45;100847.84;5061318;28;20469;-72
2022/06/02 06:20:59;;;;;;;30.33;20.60;;;;;;;36.68;46.78;100845.75;5058882;28;20797;-77
2022/06/02 06:24:07;;;;;;;29.20;23.40;;;;;;;36.97;45.81;100844.72;5062650;28;20422;-74
2022/06/02 06:26:48;;;;;;;27.93;20.30;;;;;;;36.83;46.53;100840.09;4993491;28;20424;-73
2022/06/02 06:29:32;;;;;;;30.70;22.37;;;;;;;36.53;46.68;100837.94;5065524;28;20428;-75
2022/06/02 06:32:18;;;;;;;30.37;19.90;;;;;;;36.66;46.67;100829.06;5071583;28;20501;-71
2022/06/02 06:35:03;;;;;;;27.10;20.17;;;;;;;36.67;46.19;100833.34;5073197;28;20477;-72
2022/06/02 06:37:32;;;;;;;31.40;20.93;;;;;;;36.86;45.95;100838.69;5070647;28;20449;-73
2022/06/02 06:40:21;;;;;;;25.00;16.50;;;;;;;36.87;45.86;100851.13;5070900;28;20425;-73
2022/06/02 06:43:09;;;;;;;29.77;15.67;;;;;;;37.31;45.26;100861.34;5070877;28;20480;-74
2022/06/02 06:45:53;;;;;;;26.30;20.83;;;;;;;37.61;44.33;100853.72;5070974;28;20462;-73
2022/06/02 06:48:29;;;;;;;24.87;17.07;;;;;;;37.37;44.98;100859.38;5070987;28;20848;-72
2022/06/02 06:51:24;;;;;;;21.20;14.90;;;;;;;37.53;44.72;100863.38;5068589;28;20421;-71
2022/06/02 06:54:20;;;;;;;23.23;16.03;;;;;;;37.56;44.53;100878.97;5065234;28;20953;-70
2022/06/02 06:57:11;;;;;;;29.00;16.13;;;;;;;37.46;44.87;100875.72;5059857;28;20545;-72
2022/06/02 06:59:50;;;;;;;20.80;15.97;;;;;;;37.18;45.80;100878.38;5059620;28;20438;-71
2022/06/02 07:02:44;;;;;;;23.03;13.30;;;;;;;37.19;45.97;100885.38;5061023;28;20485;-75
2022/06/02 07:05:23;;;;;;;24.97;14.47;;;;;;;36.77;46.57;100886.41;5037987;28;20418;-72
2022/06/02 07:07:49;;;;;;;15.90;12.77;;;;;;;36.89;46.80;100896.78;5059312;28;20418;-70
2022/06/02 07:10:37;;;;;;;29.53;17.43;;;;;;;37.13;45.85;100906.31;5060354;28;20421;-71
2022/06/02 07:13:22;;;;;;;26.23;14.53;;;;;;;37.26;45.84;100907.47;5061316;28;20954;-70
2022/06/02 07:15:57;;;;;;;20.63;14.33;;;;;;;37.56;45.28;100906.03;5061773;28;20510;-74
2022/06/02 07:18:52;;;;;;;20.03;13.10;;;;;;;37.75;44.87;100907.81;5059141;28;21047;-71
2022/06/02 07:21:36;;;;;;;25.30;12.10;;;;;;;37.79;44.72;100914.25;5061233;28;20413;-74
2022/06/02 07:24:17;;;;;;;25.67;14.73;;;;;;;37.80;44.87;100913.97;5061227;28;20474;-71
2022/06/02 07:26:54;;;;;;;21.90;16.00;;;;;;;37.96;44.39;100914.44;5061078;28;20792;-71
2022/06/02 07:29:26;;;;;;;22.13;16.03;;;;;;;37.56;45.05;100916.88;5059868;28;20418;-72
2022/06/02 07:32:47;;;;;;;22.90;15.57;;;;;;;37.71;44.98;100917.69;5059685;28;20433;-72
2022/06/02 07:35:43;;;;;;;20.67;13.97;;;;;;;37.95;44.40;100920.16;5010300;28;20504;-72
2022/06/02 07:38:38;;;;;;;21.10;15.10;;;;;;;38.12;44.28;100920.28;5061641;28;20956;-74
2022/06/02 07:41:38;;;;;;;23.03;14.37;;;;;;;38.31;43.77;100914.78;5061182;28;20402;-72
2022/06/02 07:44:32;;;;;;;25.13;14.27;;;;;;;38.29;43.82;100917.75;5061689;28;20406;-71
2022/06/02 07:47:27;;;;;;;29.57;15.93;;;;;;;38.18;44.08;100924.50;5061597;28;20469;-71
2022/06/02 07:50:00;;;;;;;22.40;14.40;;;;;;;38.30;43.70;100929.41;5060758;28;20435;-71
2022/06/02 07:52:56;;;;;;;22.10;12.67;;;;;;;38.44;43.29;100930.16;5058163;28;20445;-71
2022/06/02 07:55:54;;;;;;;21.07;13.63;;;;;;;38.23;43.90;100924.38;5061236;28;20442;-72
2022/06/02 07:58:45;;;;;;;28.13;16.00;;;;;;;38.50;43.38;100928.13;5060561;28;20544;-73
2022/06/02 08:01:24;;;;;;;20.30;12.90;;;;;;;38.36;43.74;100922.75;5060315;28;20530;-73
2022/06/02 08:04:29;;;;;;;25.27;14.70;;;;;;;38.37;43.67;100929.78;5060734;28;20513;-72
2022/06/02 08:07:22;;;;;;;18.70;11.80;;;;;;;38.40;43.36;100923.75;5060461;28;20437;-73
2022/06/02 08:10:14;;;;;;;20.70;9.57;;;;;;;38.39;43.25;100928.38;5060618;28;20414;-70
2022/06/02 08:12:52;;;;;;;12.43;8.20;;;;;;;38.22;43.75;100933.63;5043687;28;20418;-71
2022/06/02 08:15:18;;;;;;;25.40;10.40;;;;;;;38.00;43.74;100934.41;5058295;28;20809;-70
2022/06/02 08:17:59;;;;;;;20.53;10.00;;;;;;;38.03;43.95;100939.19;5057874;28;20454;-75
2022/06/02 08:20:29;;;;;;;20.37;9.40;;;;;;;38.13;43.69;100936.28;5059214;28;20462;-75
2022/06/02 08:23:26;;;;;;;17.20;9.47;;;;;;;38.19;43.60;100947.78;5059876;28;20402;-73
2022/06/02 08:25:58;;;;;;;21.57;9.87;;;;;;;38.36;43.31;100956.06;5060357;28;20433;-73
2022/06/02 08:28:51;;;;;;;21.60;13.80;;;;;;;38.49;43.22;100957.16;5060546;28;20417;-75
2022/06/02 08:31:51;;;;;;;17.27;10.90;;;;;;;38.51;43.25;100962.25;5058894;28;20417;-75
2022/06/02 08:34:42;;;;;;;18.67;11.17;;;;;;;38.76;42.80;100964.38;5060403;28;20812;-73
2022/06/02 08:37:41;;;;;;;20.10;10.53;;;;;;;38.78;42.45;100964.06;5035028;28;20461;-73
2022/06/02 08:40:31;;;;;;;22.77;12.03;;;;;;;38.58;43.10;100966.13;5061207;28;20475;-75
2022/06/02 08:43:24;;;;;;;24.60;11.27;;;;;;;38.43;43.65;100963.78;5061841;28;20418;-74
2022/06/02 08:46:33;;;;;;;21.90;10.70;;;;;;;38.40;43.36;100964.41;5060927;28;20502;-73
2022/06/02 08:49:23;;;;;;;20.80;11.40;;;;;;;38.58;42.99;100968.84;5058918;28;20543;-73
2022/06/02 08:52:21;;;;;;;24.90;10.87;;;;;;;38.64;42.87;100964.09;5060628;28;20433;-74
2022/06/02 08:55:20;;;;;;;21.03;12.47;;;;;;;38.67;42.82;100953.44;5060728;28;20411;-73
2022/06/02 08:58:24;;;;;;;29.63;20.33;;;;;;;38.72;42.84;100957.94;5058508;28;20461;-73
2022/06/02 09:01:22;;;;;;;15.27;11.70;;;;;;;38.69;42.85;100958.56;5057973;28;20805;-73
2022/06/02 09:04:42;;;;;;;15.40;10.13;;;;;;;38.58;42.92;100968.84;5028834;28;20457;-77
2022/06/02 09:07:37;;;;;;;19.90;10.53;;;;;;;38.48;43.12;100958.22;5012559;28;20507;-76
2022/06/02 09:10:23;;;;;;;15.83;9.33;;;;;;;38.60;42.76;100961.19;5053134;28;20415;-75
2022/06/02 09:12:56;;;;;;;14.80;9.70;;;;;;;38.79;42.41;100954.81;5053256;28;20487;-74
2022/06/02 09:15:30;;;;;;;13.50;9.00;;;;;;;38.77;42.40;100965.16;5053216;28;20960;-74
2022/06/02 09:18:44;;;;;;;20.03;9.03;;;;;;;38.53;43.14;100954.59;5053016;28;20469;-75
2022/06/02 09:21:18;;;;;;;24.93;11.60;;;;;;;38.52;43.37;100963.84;5045876;28;20458;-74
2022/06/02 09:23:51;;;;;;;26.47;15.43;;;;;;;38.47;43.25;100963.97;5052965;28;20986;-76
2022/06/02 09:26:59;;;;;;;19.70;10.47;;;;;;;38.26;44.07;100956.31;5053004;28;21023;-74
2022/06/02 09:30:05;;;;;;;15.77;10.30;;;;;;;38.51;43.26;100963.06;5054346;28;20411;-77
2022/06/02 09:32:47;;;;;;;18.87;9.60;;;;;;;38.71;43.36;100964.47;5036967;28;20984;-71
2022/06/02 09:35:23;;;;;;;14.10;9.13;;;;;;;38.77;43.05;100959.75;5054265;28;20413;-72
2022/06/02 09:38:23;;;;;;;23.60;10.53;;;;;;;38.99;42.38;100962.44;5052731;28;20469;-70
2022/06/02 09:41:16;;;;;;;14.53;9.63;;;;;;;38.79;43.09;100960.22;5052721;28;20522;-71
2022/06/02 09:43:56;;;;;;;14.83;9.67;;;;;;;39.03;42.56;100952.53;5052750;28;20789;-74
2022/06/02 09:46:46;;;;;;;14.77;9.80;;;;;;;39.02;42.53;100950.16;5053863;28;20474;-72
2022/06/02 09:49:33;;;;;;;15.80;9.67;;;;;;;38.88;42.64;100952.94;5053805;28;20447;-72
2022/06/02 09:52:04;;;;;;;18.63;9.40;;;;;;;38.84;42.67;100954.69;5052517;28;20825;-71
2022/06/02 09:54:56;;;;;;;19.77;9.57;;;;;;;38.82;42.95;100955.00;5052511;28;20998;-72
2022/06/02 09:57:55;;;;;;;12.57;10.10;;;;;;;38.75;42.66;100948.41;5052298;28;20470;-73
2022/06/02 10:00:39;;;;;;;17.40;10.63;;;;;;;39.04;42.53;100953.34;5052513;28;20504;-73
2022/06/02 10:03:34;;;;;;;15.60;10.23;;;;;;;39.04;41.82;100956.06;5052272;28;20466;-73
2022/06/02 10:06:09;;;;;;;34.17;9.77;;;;;;;39.09;42.24;100959.44;5052344;28;20461;-73
2022/06/02 10:09:20;;;;;;;17.17;8.10;;;;;;;39.11;42.28;100959.94;5052126;28;20505;-73
2022/06/02 10:15:18;;;;;;;14.90;10.43;;;;;;;39.09;42.19;100962.16;5053186;28;20405;-73
2022/06/02 10:18:22;;;;;;;17.07;9.00;;;;;;;38.99;41.91;100951.59;5051803;28;20512;-73
2022/06/02 10:21:00;;;;;;;15.00;9.03;;;;;;;39.12;42.11;100956.09;5051967;28;20414;-72
2022/06/02 10:23:38;;;;;;;14.13;9.07;;;;;;;39.08;42.24;100948.91;5051899;28;20544;-72
2022/06/02 10:26:23;;;;;;;17.33;10.23;;;;;;;39.15;42.25;100944.63;5051766;28;20496;-72
2022/06/02 10:29:07;;;;;;;19.77;9.73;;;;;;;39.01;42.38;100941.22;5053080;28;20402;-73
2022/06/02 10:31:48;;;;;;;20.60;14.00;;;;;;;39.03;42.68;100941.69;5068673;28;20440;-73
2022/06/02 10:34:51;;;;;;;12.57;9.60;;;;;;;39.07;42.44;100945.38;5071638;28;20452;-73
2022/06/02 10:37:20;;;;;;;18.60;9.70;;;;;;;39.09;42.32;100948.59;5071497;28;20457;-73
2022/06/02 10:40:10;;;;;;;23.47;10.47;;;;;;;39.07;42.08;100950.81;5071594;28;20426;-73
2022/06/02 10:43:04;;;;;;;19.33;10.83;;;;;;;39.27;42.25;100944.06;5072868;28;20409;-73
2022/06/02 10:46:05;;;;;;;20.60;9.03;;;;;;;39.31;42.07;100955.09;5071244;28;20475;-73
2022/06/02 10:48:44;;;;;;;26.37;8.93;;;;;;;39.28;42.39;100947.56;5071227;28;20993;-73
2022/06/02 10:51:35;;;;;;;16.70;10.13;;;;;;;39.41;42.10;100941.22;5072591;28;20987;-73
2022/06/02 10:54:38;;;;;;;17.87;12.00;;;;;;;39.43;42.38;100933.59;5071206;28;20934;-73
2022/06/02 10:57:25;;;;;;;21.00;10.60;;;;;;;39.25;42.65;100934.66;5071214;28;20460;-73
2022/06/02 11:00:02;;;;;;;24.23;10.47;;;;;;;39.22;42.25;100931.44;5071483;28;20475;-73
2022/06/02 11:03:05;;;;;;;20.83;12.07;;;;;;;39.36;41.89;100922.41;5071137;28;20417;-72
2022/06/02 11:06:25;;;;;;;13.60;10.40;;;;;;;39.05;42.61;100922.41;5070960;28;20497;-72
2022/06/02 11:09:24;;;;;;;23.80;11.17;;;;;;;39.29;42.64;100924.75;4994094;28;20781;-73
2022/06/02 11:12:20;;;;;;;18.53;10.97;;;;;;;39.27;42.39;100918.84;5071076;28;20471;-72
2022/06/02 11:14:58;;;;;;;24.80;10.77;;;;;;;39.31;42.35;100917.09;5070919;28;20422;-72
2022/06/02 11:17:51;;;;;;;18.93;9.53;;;;;;;39.37;42.25;100918.56;5070813;28;20910;-72
2022/06/02 11:20:34;;;;;;;18.20;8.93;;;;;;;39.34;42.76;100911.84;5070974;28;20422;-73
2022/06/02 11:23:45;;;;;;;19.53;9.03;;;;;;;39.40;42.51;100913.28;5070667;28;20809;-73
2022/06/02 11:26:23;;;;;;;15.63;8.27;;;;;;;39.24;41.59;100909.44;5070078;28;20790;-72
2022/06/02 11:29:31;;;;;;;11.97;7.73;;;;;;;39.33;40.60;100907.53;5070648;28;20445;-72
2022/06/02 11:32:32;;;;;;;11.30;7.00;;;;;;;39.39;39.37;100905.47;5070618;28;20487;-73
2022/06/02 11:35:15;;;;;;;17.10;6.83;;;;;;;39.19;39.39;100901.44;5070623;28;20430;-72
2022/06/02 11:38:18;;;;;;;10.33;7.50;;;;;;;39.00;39.47;100898.13;5070513;28;20551;-72
2022/06/02 11:41:05;;;;;;;11.73;6.93;;;;;;;39.32;39.58;100894.28;5070701;28;20414;-72
2022/06/02 11:43:53;;;;;;;11.30;6.33;;;;;;;39.27;39.19;100891.72;5070632;28;20935;-72
2022/06/02 11:46:38;;;;;;;13.83;7.20;;;;;;;39.34;39.25;100883.91;5070218;28;20473;-73
2022/06/02 11:49:22;;;;;;;14.37;6.57;;;;;;;39.59;38.93;100883.16;5070530;28;20417;-72
2022/06/02 11:52:10;;;;;;;14.77;7.20;;;;;;;39.50;39.02;100874.22;5070598;28;20444;-73
2022/06/02 11:55:11;;;;;;;11.37;6.97;;;;;;;39.62;39.09;100870.91;5070578;28;20857;-73
2022/06/02 11:57:50;;;;;;;12.90;7.03;;;;;;;39.67;38.63;100857.19;5071837;28;20476;-73
2022/06/02 12:00:47;;;;;;;10.77;7.10;;;;;;;39.57;38.98;100855.53;5070272;28;20560;-73
2022/06/02 12:03:53;;;;;;;16.37;7.30;;;;;;;39.57;38.79;100839.25;5070534;28;20406;-73
2022/06/02 12:06:40;;;;;;;10.03;5.80;;;;;;;39.60;39.73;100838.66;5070358;28;20499;-73
2022/06/02 12:09:08;;;;;;;10.13;5.17;;;;;;;39.72;39.54;100835.31;5070818;28;20429;-72
2022/06/02 12:12:07;;;;;;;14.20;7.23;;;;;;;39.59;39.33;100838.91;5064007;28;20449;-71
2022/06/02 12:15:11;;;;;;;14.33;8.67;;;;;;;39.74;39.33;100830.34;5019970;28;20423;-72
2022/06/02 12:17:56;;;;;;;8.70;6.13;;;;;;;39.67;39.37;100825.41;5026671;28;20465;-72
2022/06/02 12:20:40;;;;;;;17.23;6.87;;;;;;;39.44;39.98;100829.34;5049974;28;20524;-73
2022/06/02 12:23:18;;;;;;;12.13;7.60;;;;;;;39.41;40.37;100822.63;5050093;28;20473;-72
2022/06/02 12:26:11;;;;;;;14.27;7.53;;;;;;;39.50;40.06;100809.06;5050166;28;20414;-73
2022/06/02 12:29:01;;;;;;;15.13;6.93;;;;;;;39.56;39.63;100807.78;5050186;28;20410;-73
2022/06/02 12:31:54;;;;;;;14.73;7.30;;;;;;;39.43;39.59;100816.88;5066055;28;20453;-72
2022/06/02 12:34:56;;;;;;;11.57;6.90;;;;;;;39.60;39.58;100802.53;5071528;28;20497;-72
2022/06/02 12:37:22;;;;;;;13.60;7.90;;;;;;;39.60;39.61;100803.34;5072817;28;20839;-72
2022/06/02 12:40:25;;;;;;;19.80;9.17;;;;;;;39.46;40.06;100803.47;5074198;28;20919;-73
2022/06/02 12:43:19;;;;;;;26.23;7.73;;;;;;;39.72;39.47;100808.94;5073900;28;20429;-72
2022/06/02 12:45:46;;;;;;;14.83;8.13;;;;;;;39.70;39.42;100805.72;5073602;28;20491;-73
2022/06/02 12:48:36;;;;;;;12.10;7.20;;;;;;;39.78;39.54;100798.72;5075027;28;20473;-73
2022/06/02 12:51:40;;;;;;;12.77;6.43;;;;;;;39.84;39.75;100786.56;5073632;28;20449;-73
2022/06/02 12:54:43;;;;;;;16.50;8.67;;;;;;;39.76;39.78;100793.59;5073613;28;20405;-73